Time;durP1;ratioP1;P1;durP2;ratioP2;P2;SDS_P1;SDS_P2;PMS_P1;PMS_P2;Temp;Humidity;BMP_temperature;BMP_pressure;BME280_temperature;BME280_humidity;BME280_pressure;Samples;Min_cycle;Max_cycle;Signal;HPM_P1;HPM_P2
2023/08/30 04:00:34;;;;;;;0.60;0.10;;;16.20;99.90;;;;;;5806960;23;20490;-73
2023/08/30 04:03:02;;;;;;;0.60;0.10;;;16.10;99.90;;;;;;4895653;29;20912;-74
2023/08/30 04:05:33;;;;;;;0.60;0.10;;;16.10;99.90;;;;;;4895739;29;21000;-73
2023/08/30 04:08:02;;;;;;;0.60;0.10;;;16.00;99.90;;;;;;4896242;29;20453;-73
2023/08/30 04:10:30;;;;;;;0.60;0.10;;;15.90;99.90;;;;;;4895592;29;20465;-72
2023/08/30 04:12:58;;;;;;;0.60;0.10;;;15.80;99.90;;;;;;4896676;29;20461;-74
2023/08/30 04:15:26;;;;;;;0.60;0.20;;;15.80;99.90;;;;;;4896431;29;20919;-74
2023/08/30 04:17:55;;;;;;;0.60;0.10;;;15.90;99.90;;;;;;4896683;29;20885;-75
2023/08/30 04:20:23;;;;;;;0.60;0.10;;;16.00;99.90;;;;;;4896443;29;20457;-74
2023/08/30 04:22:53;;;;;;;0.60;0.10;;;16.00;99.90;;;;;;4897337;29;20512;-74
2023/08/30 04:25:21;;;;;;;0.60;0.10;;;16.00;99.90;;;;;;4900856;29;20530;-73
2023/08/30 04:27:52;;;;;;;0.60;0.10;;;16.10;99.90;;;;;;4901731;29;20846;-74
2023/08/30 04:30:20;;;;;;;0.60;0.20;;;16.10;99.90;;;;;;4896704;29;20543;-74
2023/08/30 04:32:48;;;;;;;0.60;0.10;;;16.10;99.90;;;;;;4901474;29;20846;-74
2023/08/30 04:35:18;;;;;;;0.60;0.10;;;16.20;99.90;;;;;;4905999;29;20579;-74
2023/08/30 04:37:46;;;;;;;0.60;0.10;;;16.20;99.90;;;;;;4916245;29;20455;-74
2023/08/30 04:40:14;;;;;;;0.67;0.17;;;16.10;99.90;;;;;;4915459;29;20472;-73
2023/08/30 04:42:42;;;;;;;0.60;0.10;;;16.00;99.90;;;;;;4915195;29;20966;-73
2023/08/30 04:45:10;;;;;;;0.60;0.10;;;16.00;99.90;;;;;;4877033;29;20446;-73
2023/08/30 04:47:38;;;;;;;0.60;0.10;;;16.00;99.90;;;;;;4876970;29;20463;-74
2023/08/30 04:50:07;;;;;;;0.60;0.10;;;15.90;99.90;;;;;;4877057;29;20841;-75
2023/08/30 04:52:37;;;;;;;0.60;0.10;;;15.80;99.90;;;;;;4877381;29;20561;-74
2023/08/30 04:55:06;;;;;;;0.60;0.10;;;15.70;99.90;;;;;;4877569;29;20518;-74
2023/08/30 04:57:34;;;;;;;0.60;0.10;;;15.70;99.90;;;;;;4877302;29;20459;-73
2023/08/30 05:00:04;;;;;;;0.60;0.10;;;15.70;99.90;;;;;;4877408;29;20454;-74
2023/08/30 05:02:32;;;;;;;0.60;0.10;;;15.70;99.90;;;;;;4876927;29;20534;-75
2023/08/30 05:05:02;;;;;;;0.60;0.10;;;15.70;99.90;;;;;;4877655;29;20479;-73
2023/08/30 05:07:30;;;;;;;0.60;0.13;;;15.80;99.90;;;;;;4877266;29;20947;-73
2023/08/30 05:09:59;;;;;;;0.60;0.10;;;15.80;99.90;;;;;;4876972;29;20554;-73
2023/08/30 05:12:28;;;;;;;0.60;0.20;;;15.80;99.90;;;;;;4877224;29;20835;-74
2023/08/30 05:14:56;;;;;;;0.60;0.10;;;15.80;99.90;;;;;;4890138;29;20493;-73
2023/08/30 05:17:24;;;;;;;0.60;0.10;;;15.80;99.90;;;;;;4896262;29;20493;-73
2023/08/30 05:19:52;;;;;;;0.60;0.10;;;15.80;99.90;;;;;;4896148;29;20449;-75
2023/08/30 05:22:19;;;;;;;0.60;0.10;;;15.90;99.90;;;;;;4895499;29;20501;-73
2023/08/30 05:24:48;;;;;;;0.60;0.10;;;16.00;99.90;;;;;;4895258;29;20441;-74
2023/08/30 05:27:18;;;;;;;0.60;0.10;;;16.00;99.90;;;;;;4895656;29;20500;-74
2023/08/30 05:29:46;;;;;;;0.60;0.10;;;16.10;99.90;;;;;;4896729;29;20464;-74
2023/08/30 05:32:13;;;;;;;0.60;0.10;;;16.10;99.90;;;;;;4895897;29;20516;-74
2023/08/30 05:34:41;;;;;;;0.60;0.10;;;16.10;99.90;;;;;;4899127;29;20485;-74
2023/08/30 05:37:09;;;;;;;0.60;0.10;;;16.10;99.90;;;;;;4899160;29;20796;-74
2023/08/30 05:39:37;;;;;;;0.60;0.10;;;16.10;99.90;;;;;;4899213;29;20553;-74
2023/08/30 05:42:06;;;;;;;0.60;0.20;;;16.20;99.90;;;;;;4899549;29;20912;-74
2023/08/30 05:44:35;;;;;;;0.60;0.10;;;16.30;99.90;;;;;;4899010;29;20806;-74
2023/08/30 05:47:03;;;;;;;0.60;0.10;;;16.30;99.90;;;;;;4899264;29;20453;-73
2023/08/30 05:49:32;;;;;;;0.60;0.10;;;16.30;99.90;;;;;;4898825;29;20467;-74
2023/08/30 05:51:59;;;;;;;0.80;0.53;;;16.30;99.90;;;;;;4898868;29;20540;-74
2023/08/30 05:54:29;;;;;;;0.60;0.10;;;16.30;99.90;;;;;;4898614;29;20462;-74
2023/08/30 05:56:57;;;;;;;0.60;0.20;;;16.40;99.90;;;;;;4898678;29;20460;-73
2023/08/30 05:59:26;;;;;;;0.60;0.20;;;16.50;99.90;;;;;;4899129;29;20541;-73
2023/08/30 06:01:55;;;;;;;0.60;0.10;;;16.60;99.90;;;;;;4895361;29;20503;-74
2023/08/30 06:04:26;;;;;;;0.60;0.10;;;;;;;;;;4908200;29;20520;-75
2023/08/30 06:06:54;;;;;;;0.60;0.10;;;16.70;99.90;;;;;;4913521;29;20528;-73
2023/08/30 06:09:22;;;;;;;0.60;0.10;;;16.70;99.90;;;;;;4901372;29;20945;-73
2023/08/30 06:11:50;;;;;;;0.60;0.10;;;16.70;99.90;;;;;;4903080;29;20465;-74
2023/08/30 06:14:18;;;;;;;0.60;0.10;;;16.70;99.90;;;;;;4900387;29;20469;-73
2023/08/30 06:16:47;;;;;;;0.60;0.10;;;;;;;;;;4909559;29;20587;-74
2023/08/30 06:19:17;;;;;;;0.60;0.10;;;15.80;99.90;;;;;;4899460;29;20457;-73
2023/08/30 06:21:45;;;;;;;0.60;0.20;;;16.70;99.90;;;;;;4898277;29;21017;-74
2023/08/30 06:24:13;;;;;;;0.60;0.10;;;16.80;99.90;;;;;;4898262;29;20433;-74
2023/08/30 06:26:40;;;;;;;0.60;0.10;;;16.80;99.90;;;;;;4898496;29;20557;-74
2023/08/30 06:29:08;;;;;;;0.60;0.20;;;16.80;99.90;;;;;;4907177;29;20492;-74
2023/08/30 06:31:37;;;;;;;0.60;0.10;;;;;;;;;;4917022;29;20476;-76
2023/08/30 06:34:05;;;;;;;0.60;0.10;;;17.00;99.90;;;;;;4917574;29;20880;-74
2023/08/30 06:36:34;;;;;;;0.60;0.10;;;17.10;99.90;;;;;;4899166;29;20873;-73
2023/08/30 06:39:03;;;;;;;0.60;0.20;;;17.00;99.90;;;;;;4898457;29;20445;-74
2023/08/30 06:41:31;;;;;;;0.60;0.10;;;17.00;99.90;;;;;;4896104;29;20473;-73
2023/08/30 06:43:59;;;;;;;0.60;0.10;;;17.00;99.90;;;;;;4898643;29;20454;-74
2023/08/30 06:46:27;;;;;;;0.60;0.20;;;17.10;99.90;;;;;;4898329;29;20485;-75
2023/08/30 06:48:55;;;;;;;0.60;0.10;;;17.00;99.90;;;;;;4901461;29;20513;-75
2023/08/30 06:51:23;;;;;;;0.60;0.10;;;17.10;99.90;;;;;;4900157;29;20475;-74
2023/08/30 06:53:55;;;;;;;0.60;0.20;;;17.10;99.90;;;;;;4902920;29;20484;-73
2023/08/30 06:56:23;;;;;;;0.70;0.50;;;17.20;99.90;;;;;;4903098;29;20490;-75
2023/08/30 06:58:51;;;;;;;0.60;0.10;;;17.20;99.90;;;;;;4900582;29;21165;-75
2023/08/30 07:01:19;;;;;;;0.60;0.20;;;17.30;99.90;;;;;;4899352;29;20490;-75
2023/08/30 07:03:47;;;;;;;0.60;0.10;;;17.30;99.90;;;;;;4898495;29;20544;-76
2023/08/30 07:06:15;;;;;;;0.60;0.20;;;17.40;99.90;;;;;;4899292;29;21083;-75
2023/08/30 07:08:43;;;;;;;0.60;0.10;;;17.40;99.90;;;;;;4900690;29;20441;-74
2023/08/30 07:11:12;;;;;;;0.60;0.20;;;17.50;99.90;;;;;;4899073;29;20570;-74
2023/08/30 07:13:59;;;;;;;1.40;1.30;;;17.10;99.90;;;;;;4898411;29;20824;-74
2023/08/30 07:16:27;;;;;;;1.73;1.63;;;17.40;99.90;;;;;;4897312;29;20964;-74
2023/08/30 07:18:57;;;;;;;0.60;0.10;;;17.40;99.90;;;;;;4897367;29;20457;-75
2023/08/30 07:21:25;;;;;;;0.60;0.20;;;17.40;99.90;;;;;;4897631;29;20999;-75
2023/08/30 07:23:53;;;;;;;5.23;2.23;;;17.10;99.90;;;;;;4898732;29;20801;-75
2023/08/30 07:26:22;;;;;;;0.60;0.10;;;17.00;99.90;;;;;;4897416;29;20518;-75
2023/08/30 07:28:50;;;;;;;1.13;0.77;;;17.00;99.90;;;;;;4899118;29;20848;-74
2023/08/30 07:31:18;;;;;;;1.30;1.17;;;17.10;99.90;;;;;;4900582;29;20521;-75
2023/08/30 07:33:46;;;;;;;0.60;0.20;;;17.10;99.90;;;;;;4906380;29;20473;-74
2023/08/30 07:36:14;;;;;;;0.60;0.10;;;17.20;99.90;;;;;;4914132;29;21025;-75
2023/08/30 07:38:42;;;;;;;0.60;0.23;;;17.20;99.90;;;;;;4916123;29;20448;-77
2023/08/30 07:41:11;;;;;;;0.60;0.20;;;17.30;99.90;;;;;;4916437;29;20466;-75
2023/08/30 07:43:41;;;;;;;0.60;0.23;;;17.30;99.90;;;;;;4912195;29;20466;-74
2023/08/30 07:46:09;;;;;;;0.60;0.10;;;17.40;99.90;;;;;;4905880;29;20529;-74
2023/08/30 07:48:37;;;;;;;2.20;1.27;;;17.40;99.90;;;;;;4916371;29;20451;-76
2023/08/30 07:51:05;;;;;;;2.40;0.70;;;17.40;99.90;;;;;;4916297;29;20557;-74
2023/08/30 07:53:33;;;;;;;0.60;0.10;;;17.40;99.90;;;;;;4915858;29;20947;-74
2023/08/30 07:56:01;;;;;;;2.20;0.87;;;17.60;99.90;;;;;;4915422;29;20563;-74
2023/08/30 07:58:28;;;;;;;1.67;0.70;;;17.50;99.90;;;;;;4915791;29;20449;-73
2023/08/30 08:00:58;;;;;;;1.23;0.40;;;17.50;99.90;;;;;;4916139;29;20493;-74
2023/08/30 08:03:26;;;;;;;1.73;1.07;;;17.50;99.90;;;;;;4915680;29;20838;-75
2023/08/30 08:05:54;;;;;;;0.70;0.10;;;;;;;;;;4915874;29;20464;-75
2023/08/30 08:08:22;;;;;;;1.13;0.83;;;17.60;99.90;;;;;;4915827;29;20550;-75
2023/08/30 08:10:50;;;;;;;1.73;1.60;;;17.40;99.90;;;;;;4907818;29;21013;-74
2023/08/30 08:13:18;;;;;;;0.60;0.20;;;17.40;99.90;;;;;;4892842;29;21012;-73
2023/08/30 08:15:46;;;;;;;6.87;2.93;;;17.40;99.90;;;;;;4894653;29;20468;-76
2023/08/30 08:18:16;;;;;;;1.13;1.03;;;17.40;99.90;;;;;;4904590;29;20540;-76
2023/08/30 08:20:44;;;;;;;0.60;0.40;;;17.50;99.90;;;;;;4901593;29;20470;-74
2023/08/30 08:23:12;;;;;;;0.83;0.83;;;17.60;99.90;;;;;;4913604;29;20489;-76
2023/08/30 08:25:40;;;;;;;0.60;0.30;;;17.70;99.90;;;;;;4915309;29;20858;-76
2023/08/30 08:28:08;;;;;;;0.80;0.57;;;17.90;99.90;;;;;;4915047;29;20517;-74
2023/08/30 08:30:37;;;;;;;3.67;3.33;;;18.00;99.90;;;;;;4914812;29;20500;-74
2023/08/30 08:33:05;;;;;;;1.47;1.37;;;17.90;99.90;;;;;;4915431;29;20484;-74
2023/08/30 08:35:35;;;;;;;0.60;0.10;;;18.00;99.90;;;;;;4900660;29;20462;-75
2023/08/30 08:38:03;;;;;;;1.23;0.73;;;18.00;99.90;;;;;;4904548;29;20487;-75
2023/08/30 08:40:38;;;;;;;1.63;1.23;;;17.90;99.90;;;;;;4915090;29;21045;-74
2023/08/30 08:43:12;;;;;;;1.00;0.50;;;17.90;99.90;;;;;;4911544;29;20530;-74
2023/08/30 08:45:40;;;;;;;0.80;0.80;;;17.80;99.90;;;;;;4895700;29;20458;-75
2023/08/30 08:48:10;;;;;;;0.60;0.10;;;18.00;99.90;;;;;;4896010;29;20947;-74
2023/08/30 08:50:40;;;;;;;0.60;0.10;;;18.20;99.90;;;;;;4896026;29;20832;-74
2023/08/30 08:53:08;;;;;;;0.97;0.97;;;18.20;99.90;;;;;;4892960;29;20469;-76
2023/08/30 08:55:39;;;;;;;0.60;0.10;;;18.30;99.90;;;;;;4913651;29;20789;-75
2023/08/30 08:58:07;;;;;;;0.60;0.30;;;18.30;99.90;;;;;;4898068;29;20485;-74
2023/08/30 09:00:36;;;;;;;0.60;0.20;;;;;;;;;;4895631;29;20482;-74
2023/08/30 09:03:07;;;;;;;3.93;2.10;;;18.30;99.90;;;;;;4895870;29;20475;-76
2023/08/30 09:05:39;;;;;;;1.63;1.13;;;18.10;99.90;;;;;;4895831;29;20548;-75
2023/08/30 09:08:11;;;;;;;1.90;1.63;;;18.10;99.90;;;;;;4896650;29;21196;-76
2023/08/30 09:10:39;;;;;;;0.70;0.30;;;18.20;99.90;;;;;;4899636;29;20466;-75
2023/08/30 09:13:07;;;;;;;0.60;0.20;;;18.20;99.90;;;;;;4899571;29;20862;-74
2023/08/30 09:15:37;;;;;;;0.60;0.10;;;;;;;;;;4899168;29;20466;-75
2023/08/30 09:18:05;;;;;;;1.20;1.10;;;18.40;99.90;;;;;;4898993;29;21040;-75
2023/08/30 09:20:33;;;;;;;0.60;0.10;;;18.60;99.90;;;;;;4899405;29;20477;-74
2023/08/30 09:23:03;;;;;;;0.70;0.20;;;18.60;99.90;;;;;;4899452;29;20528;-74
2023/08/30 09:25:31;;;;;;;1.23;1.13;;;18.60;99.90;;;;;;4898485;29;20516;-76
2023/08/30 09:28:00;;;;;;;1.47;0.93;;;18.70;99.90;;;;;;4899258;29;20566;-73
2023/08/30 09:30:29;;;;;;;0.70;0.60;;;18.70;99.90;;;;;;4899027;29;20601;-73
2023/08/30 09:33:02;;;;;;;3.03;2.40;;;18.70;99.90;;;;;;4899076;29;20872;-72
2023/08/30 09:35:30;;;;;;;0.60;0.10;;;18.60;99.90;;;;;;4898745;29;20485;-72
2023/08/30 09:37:58;;;;;;;0.70;0.20;;;18.60;99.90;;;;;;4898390;29;20574;-72
2023/08/30 09:40:27;;;;;;;1.47;0.83;;;18.70;99.90;;;;;;4906015;29;20485;-72
2023/08/30 09:42:55;;;;;;;1.03;0.67;;;18.80;99.90;;;;;;4908514;29;20530;-72
2023/08/30 09:45:40;;;;;;;2.30;2.20;;;18.70;99.90;;;;;;4898788;29;20482;-71
2023/08/30 09:48:09;;;;;;;1.00;0.90;;;18.70;99.90;;;;;;4898677;29;20487;-72
2023/08/30 09:50:37;;;;;;;1.90;1.23;;;18.60;99.90;;;;;;4898557;29;20490;-71
2023/08/30 09:53:09;;;;;;;1.83;1.63;;;18.40;99.90;;;;;;4898997;29;20494;-71
2023/08/30 09:55:41;;;;;;;0.60;0.10;;;18.40;99.90;;;;;;4898795;29;20451;-71
2023/08/30 09:58:10;;;;;;;0.60;0.17;;;18.50;99.90;;;;;;4898725;29;20921;-72
2023/08/30 10:00:41;;;;;;;7.27;4.80;;;18.50;99.90;;;;;;4903708;29;21041;-72
2023/08/30 10:03:09;;;;;;;2.20;2.10;;;18.40;99.90;;;;;;4911610;29;20537;-72
2023/08/30 10:06:00;;;;;;;0.60;0.10;;;18.50;99.90;;;;;;4913036;29;20546;-72
2023/08/30 10:08:31;;;;;;;1.67;0.80;;;18.50;99.90;;;;;;4890013;29;20454;-72
2023/08/30 10:11:01;;;;;;;5.83;3.23;;;18.80;99.90;;;;;;4900993;29;20887;-73
2023/08/30 10:13:30;;;;;;;0.60;0.10;;;18.80;99.90;;;;;;4907084;29;20452;-72
2023/08/30 10:16:03;;;;;;;0.80;0.40;;;18.90;99.90;;;;;;4901409;29;20926;-72
2023/08/30 10:18:34;;;;;;;1.10;0.57;;;19.00;99.90;;;;;;4890444;29;20490;-72
2023/08/30 10:21:05;;;;;;;0.60;0.33;;;19.00;99.90;;;;;;4916259;29;20478;-72
2023/08/30 10:23:34;;;;;;;1.33;1.23;;;19.00;99.90;;;;;;4917690;29;20454;-71
2023/08/30 10:26:06;;;;;;;0.60;0.10;;;19.20;99.90;;;;;;4917904;29;20485;-72
2023/08/30 10:28:35;;;;;;;0.60;0.20;;;19.30;99.90;;;;;;4921276;29;20908;-73
2023/08/30 10:31:04;;;;;;;6.30;3.53;;;19.40;99.90;;;;;;4907949;29;20494;-71
2023/08/30 10:33:32;;;;;;;1.43;1.20;;;19.40;99.90;;;;;;4905366;29;20486;-71
2023/08/30 10:36:07;;;;;;;1.20;0.67;;;19.40;99.90;;;;;;4902851;29;20530;-71
2023/08/30 10:38:38;;;;;;;2.73;1.90;;;19.40;99.90;;;;;;4899639;29;20518;-71
2023/08/30 10:41:10;;;;;;;1.97;1.70;;;19.50;99.90;;;;;;4899112;29;20503;-72
2023/08/30 10:43:38;;;;;;;0.60;0.10;;;19.60;99.90;;;;;;4897629;29;20896;-70
2023/08/30 10:46:07;;;;;;;0.60;0.10;;;19.80;99.90;;;;;;4897904;29;20452;-72
2023/08/30 10:48:40;;;;;;;0.60;0.10;;;19.80;99.90;;;;;;4898120;29;20527;-72
2023/08/30 10:51:21;;;;;;;0.80;0.40;;;20.20;99.90;;;;;;4898140;29;20477;-73
2023/08/30 10:53:59;;;;;;;1.63;0.53;;;20.30;99.90;;;;;;4903664;29;20739;-73
2023/08/30 10:56:33;;;;;;;0.80;0.73;;;20.40;99.90;;;;;;4893467;29;20471;-72
2023/08/30 10:59:03;;;;;;;0.60;0.20;;;20.40;99.90;;;;;;4906604;29;20487;-73
2023/08/30 11:01:31;;;;;;;0.60;0.13;;;20.50;99.90;;;;;;4916465;29;20521;-72
2023/08/30 11:04:00;;;;;;;0.60;0.10;;;20.60;99.90;;;;;;4917180;29;20821;-73
2023/08/30 11:06:43;;;;;;;1.97;1.57;;;20.60;99.90;;;;;;4912364;29;20551;-72
2023/08/30 11:09:13;;;;;;;0.60;0.30;;;20.70;99.90;;;;;;4908376;29;20554;-72
2023/08/30 11:11:42;;;;;;;0.80;0.53;;;20.60;99.90;;;;;;4914516;29;20519;-72
2023/08/30 11:14:11;;;;;;;2.53;1.03;;;20.60;99.90;;;;;;4908545;29;20478;-72
2023/08/30 11:16:39;;;;;;;0.80;0.60;;;20.60;99.90;;;;;;4916663;29;20644;-72
2023/08/30 11:19:08;;;;;;;0.60;0.30;;;20.70;99.90;;;;;;4908556;29;20861;-73
2023/08/30 11:21:39;;;;;;;0.70;0.40;;;20.90;99.90;;;;;;4902745;29;20541;-73
2023/08/30 11:24:08;;;;;;;1.77;1.17;;;20.60;95.30;;;;;;4905200;29;20792;-72
2023/08/30 11:26:37;;;;;;;1.70;1.13;;;20.60;99.90;;;;;;4897023;29;20493;-71
2023/08/30 11:29:07;;;;;;;0.60;0.20;;;20.70;96.40;;;;;;4898220;29;20465;-72
2023/08/30 11:31:35;;;;;;;0.60;0.20;;;20.80;98.90;;;;;;4896925;29;20583;-72
2023/08/30 11:34:03;;;;;;;0.83;0.80;;;20.90;99.90;;;;;;4895679;29;20465;-72
2023/08/30 11:36:33;;;;;;;0.80;0.30;;;21.00;99.90;;;;;;4911645;29;20536;-72
2023/08/30 11:39:01;;;;;;;1.30;0.97;;;;;;;;;;4893426;29;20528;-73
2023/08/30 11:41:29;;;;;;;0.60;0.20;;;20.80;94.50;;;;;;4907266;29;20468;-72
2023/08/30 11:44:00;;;;;;;0.83;0.70;;;20.80;99.90;;;;;;4905348;29;20453;-72
2023/08/30 11:46:32;;;;;;;0.87;0.50;;;;;;;;;;4896231;29;20449;-72
2023/08/30 11:49:00;;;;;;;2.40;0.60;;;;;;;;;;4896115;29;20451;-72
2023/08/30 11:51:29;;;;;;;0.60;0.20;;;;;;;;;;4896160;29;20821;-71
2023/08/30 11:53:57;;;;;;;2.00;0.57;;;;;;;;;;4911753;23;20451;-68
2023/08/30 11:56:26;;;;;;;1.93;1.13;;;;;;;;;;4900881;29;20452;-67
2023/08/30 11:58:54;;;;;;;3.23;0.50;;;;;;;;;;4898182;29;20552;-68
2023/08/30 12:01:23;;;;;;;2.10;0.93;;;;;;;;;;4894093;29;20507;-68
2023/08/30 12:03:52;;;;;;;0.70;0.40;;;;;;;;;;4898561;29;20453;-69
2023/08/30 12:06:20;;;;;;;0.87;0.67;;;;;;;;;;4916770;29;20448;-68
2023/08/30 12:08:49;;;;;;;0.60;0.20;;;;;;;;;;4917923;29;20901;-66
2023/08/30 12:11:20;;;;;;;0.60;0.23;;;;;;;;;;4916984;29;20452;-67
2023/08/30 12:13:50;;;;;;;0.60;0.10;;;;;;;;;;4898489;29;20585;-67
2023/08/30 12:16:21;;;;;;;0.60;0.20;;;;;;;;;;4907697;29;20464;-68
2023/08/30 12:18:49;;;;;;;0.80;0.50;;;;;;;;;;4912084;29;20845;-67
2023/08/30 12:21:19;;;;;;;0.60;0.20;;;;;;;;;;4905371;29;20459;-66
2023/08/30 12:23:47;;;;;;;0.60;0.17;;;;;;;;;;4898362;29;20513;-67
2023/08/30 12:26:16;;;;;;;2.83;2.63;;;;;;;;;;4897719;29;20459;-66
2023/08/30 12:28:44;;;;;;;1.17;0.43;;;;;;;;;;4896326;29;20497;-67
2023/08/30 12:31:13;;;;;;;0.70;0.40;;;;;;;;;;4906320;29;20791;-68
2023/08/30 12:33:41;;;;;;;0.60;0.13;;;;;;;;;;4917380;29;20444;-66
2023/08/30 12:36:09;;;;;;;0.60;0.10;;;;;;;;;;4916889;29;20448;-68
2023/08/30 12:38:39;;;;;;;0.60;0.13;;;;;;;;;;4916636;29;20490;-67
2023/08/30 12:41:07;;;;;;;0.60;0.10;;;;;;;;;;4903025;29;20696;-68
2023/08/30 12:43:36;;;;;;;1.50;0.77;;;;;;;;;;4907653;29;20513;-68
2023/08/30 12:46:04;;;;;;;0.83;0.30;;;;;;;;;;4907977;29;20508;-69
2023/08/30 12:48:33;;;;;;;3.40;2.40;;;;;;;;;;4916043;29;20448;-67
2023/08/30 12:51:01;;;;;;;0.60;0.20;;;;;;;;;;4914715;29;20449;-66
2023/08/30 12:53:29;;;;;;;1.43;0.40;;;;;;;;;;4902104;29;20457;-68
2023/08/30 12:55:59;;;;;;;0.60;0.20;;;21.30;54.30;;;;;;4912062;29;20459;-72
2023/08/30 12:58:27;;;;;;;1.60;0.80;;;21.20;48.00;;;;;;4902997;29;20548;-70
2023/08/30 13:00:55;;;;;;;0.60;0.20;;;21.20;36.00;;;;;;4897264;29;20460;-70
2023/08/30 13:03:23;;;;;;;1.47;0.77;;;21.20;46.40;;;;;;4907604;29;20499;-68
2023/08/30 13:05:51;;;;;;;1.60;1.50;;;21.40;26.90;;;;;;4915098;29;20472;-69
2023/08/30 13:08:19;;;;;;;1.07;0.50;;;;;;;;;;4904944;29;20468;-68
2023/08/30 13:10:47;;;;;;;0.70;0.40;;;21.70;15.00;;;;;;4905538;29;20914;-69
2023/08/30 13:13:17;;;;;;;0.80;0.30;;;21.70;13.60;;;;;;4908831;29;20457;-67
2023/08/30 13:15:45;;;;;;;1.20;0.80;;;;;;;;;;4904364;29;20492;-68
2023/08/30 13:18:13;;;;;;;0.70;0.37;;;21.50;12.90;;;;;;4897031;29;20905;-68
2023/08/30 13:20:40;;;;;;;2.00;0.83;;;21.50;13.20;;;;;;4897092;29;20459;-67
2023/08/30 13:23:09;;;;;;;1.13;1.03;;;21.60;13.70;;;;;;4898161;29;20969;-66
2023/08/30 13:25:40;;;;;;;1.60;0.90;;;21.50;3.60;;;;;;4896745;29;20465;-67
2023/08/30 13:28:08;;;;;;;2.03;1.37;;;21.50;4.60;;;;;;4896039;29;20507;-68
2023/08/30 13:30:44;;;;;;;2.90;0.80;;;21.60;8.20;;;;;;4895881;29;20528;-68
2023/08/30 13:33:12;;;;;;;2.77;0.67;;;21.60;4.40;;;;;;4895890;29;20445;-67
2023/08/30 13:35:41;;;;;;;2.60;1.30;;;21.60;5.60;;;;;;4895544;29;20480;-67
2023/08/30 13:38:09;;;;;;;2.00;1.30;;;21.60;4.70;;;;;;4895452;29;20974;-66
2023/08/30 13:40:37;;;;;;;1.13;0.83;;;21.60;8.70;;;;;;4895673;29;20484;-66
2023/08/30 13:43:05;;;;;;;4.00;1.47;;;21.60;7.00;;;;;;4895709;29;20448;-67
2023/08/30 13:45:33;;;;;;;0.90;0.60;;;21.50;10.60;;;;;;4896426;29;20835;-67
2023/08/30 13:48:03;;;;;;;0.60;0.20;;;21.60;9.00;;;;;;4896878;29;20452;-67
2023/08/30 13:50:31;;;;;;;0.83;0.57;;;21.70;7.20;;;;;;4896735;29;20512;-68
2023/08/30 13:52:59;;;;;;;1.33;0.97;;;21.60;7.10;;;;;;4897044;29;20479;-68
2023/08/30 13:55:27;;;;;;;3.20;1.97;;;21.60;9.40;;;;;;4899098;29;20554;-68
2023/08/30 13:57:55;;;;;;;2.60;1.60;;;21.60;8.30;;;;;;4899542;29;20449;-68
2023/08/30 14:00:23;;;;;;;2.20;1.40;;;21.50;7.80;;;;;;4898263;29;20835;-68
2023/08/30 14:02:52;;;;;;;0.60;0.10;;;21.40;8.80;;;;;;4900493;29;20446;-67
2023/08/30 14:05:21;;;;;;;1.97;1.73;;;21.40;8.80;;;;;;4901263;29;20851;-66
2023/08/30 14:07:49;;;;;;;0.60;0.20;;;21.60;12.50;;;;;;4900336;29;20488;-68
2023/08/30 14:10:18;;;;;;;0.93;0.77;;;21.70;12.00;;;;;;4899580;29;20815;-67
2023/08/30 14:12:48;;;;;;;0.93;0.40;;;21.60;11.60;;;;;;4899431;29;20962;-68
2023/08/30 14:15:16;;;;;;;0.70;0.40;;;21.70;8.20;;;;;;4899708;29;21106;-68
2023/08/30 14:17:44;;;;;;;2.50;1.40;;;21.70;17.30;;;;;;4900568;29;20492;-68
2023/08/30 14:20:12;;;;;;;0.73;0.50;;;21.90;8.30;;;;;;4900204;29;20558;-69
2023/08/30 14:22:42;;;;;;;0.60;0.10;;;21.70;8.40;;;;;;4900141;29;20458;-68
2023/08/30 14:25:10;;;;;;;0.70;0.27;;;21.70;8.40;;;;;;4897946;29;20956;-67
2023/08/30 14:27:39;;;;;;;1.20;0.40;;;21.70;17.00;;;;;;4894034;29;20516;-66
2023/08/30 14:30:08;;;;;;;0.67;0.33;;;21.80;14.30;;;;;;4906282;29;20834;-69
2023/08/30 14:32:36;;;;;;;1.03;0.50;;;21.70;6.90;;;;;;4910707;29;20447;-67
2023/08/30 14:35:05;;;;;;;2.73;1.80;;;21.60;6.60;;;;;;4916269;29;20504;-72
2023/08/30 14:37:34;;;;;;;0.60;0.17;;;21.60;7.40;;;;;;4917304;29;21143;-68
2023/08/30 14:40:04;;;;;;;3.60;2.90;;;21.70;6.70;;;;;;4917356;29;20595;-72
2023/08/30 14:42:32;;;;;;;2.60;1.20;;;21.70;4.30;;;;;;4901888;29;20497;-68
2023/08/30 14:45:00;;;;;;;0.60;0.20;;;21.60;6.20;;;;;;4898900;29;21005;-69
2023/08/30 14:47:30;;;;;;;4.80;4.43;;;21.80;8.10;;;;;;4909221;29;20787;-71
2023/08/30 14:49:59;;;;;;;3.73;0.97;;;21.80;17.10;;;;;;4918452;29;20440;-71
2023/08/30 14:52:26;;;;;;;0.60;0.10;;;21.90;11.10;;;;;;4917112;29;20465;-71
2023/08/30 14:54:54;;;;;;;1.23;0.50;;;22.00;11.10;;;;;;4911362;29;20506;-72
2023/08/30 14:57:24;;;;;;;0.90;0.57;;;22.10;8.40;;;;;;4909584;29;20447;-73
2023/08/30 14:59:53;;;;;;;1.33;0.80;;;22.10;17.50;;;;;;4904019;29;20578;-74
2023/08/30 15:02:20;;;;;;;1.17;1.07;;;22.10;16.70;;;;;;4899669;29;20461;-73
2023/08/30 15:04:48;;;;;;;2.30;0.90;;;22.00;10.10;;;;;;4898241;29;20546;-73
2023/08/30 15:07:16;;;;;;;2.83;2.63;;;22.10;20.50;;;;;;4899519;29;20575;-70
2023/08/30 15:09:46;;;;;;;1.27;1.17;;;22.00;15.30;;;;;;4900537;29;20515;-69
2023/08/30 15:12:13;;;;;;;0.90;0.70;;;21.60;3.70;;;;;;4900534;29;20485;-70
2023/08/30 15:14:43;;;;;;;3.73;1.73;;;21.70;5.70;;;;;;4899309;29;20541;-68
2023/08/30 15:17:11;;;;;;;1.00;0.87;;;;;;;;;;4899360;29;20520;-68
2023/08/30 15:19:40;;;;;;;0.60;0.20;;;;;;;;;;4898707;29;20625;-68
2023/08/30 15:22:09;;;;;;;1.10;0.80;;;;;;;;;;4898579;29;20463;-69
2023/08/30 15:24:37;;;;;;;0.60;0.20;;;;;;;;;;4901304;29;20480;-77
2023/08/30 15:27:06;;;;;;;0.73;0.47;;;;;;;;;;4902880;29;20988;-78
2023/08/30 15:29:34;;;;;;;1.87;1.23;;;21.90;7.90;;;;;;4898171;29;20540;-78
2023/08/30 15:32:03;;;;;;;0.60;0.20;;;;;;;;;;4898316;29;20493;-76
2023/08/30 15:34:31;;;;;;;0.70;0.50;;;21.80;7.20;;;;;;4898642;29;20469;-78
2023/08/30 15:36:59;;;;;;;0.87;0.87;;;21.80;8.80;;;;;;4898259;29;20539;-78
2023/08/30 15:39:27;;;;;;;0.60;0.20;;;21.70;9.30;;;;;;4899723;29;20565;-76
2023/08/30 15:41:55;;;;;;;0.90;0.50;;;21.70;10.90;;;;;;4898770;29;20526;-77
2023/08/30 15:44:23;;;;;;;1.30;1.10;;;22.00;11.40;;;;;;4900455;29;20469;-77
2023/08/30 15:46:51;;;;;;;0.60;0.20;;;22.10;14.90;;;;;;4897078;29;20499;-78
2023/08/30 15:49:21;;;;;;;0.60;0.20;;;22.20;13.10;;;;;;4915514;29;20511;-77
2023/08/30 15:51:49;;;;;;;3.03;1.23;;;22.20;12.90;;;;;;4903380;29;20458;-75
2023/08/30 15:54:17;;;;;;;1.83;0.80;;;22.30;16.00;;;;;;4910296;29;20473;-76
2023/08/30 15:56:45;;;;;;;1.43;1.23;;;;;;;;;;4902191;29;20454;-75
2023/08/30 15:59:14;;;;;;;0.70;0.37;;;22.30;14.20;;;;;;4902463;29;20464;-74
2023/08/30 16:01:42;;;;;;;7.73;2.00;;;22.30;14.90;;;;;;4906161;29;20488;-75
2023/08/30 16:04:10;;;;;;;0.70;0.30;;;22.10;13.00;;;;;;4899288;29;20472;-73
2023/08/30 16:06:42;;;;;;;3.40;0.53;;;21.90;13.10;;;;;;4896882;29;20829;-73
2023/08/30 16:09:10;;;;;;;0.80;0.40;;;21.90;21.60;;;;;;4898172;29;20973;-72
2023/08/30 16:11:38;;;;;;;1.20;0.90;;;;;;;;;;4897767;29;20484;-74
2023/08/30 16:14:07;;;;;;;0.80;0.47;;;21.70;10.40;;;;;;4897631;29;20579;-72
2023/08/30 16:16:35;;;;;;;1.23;0.93;;;21.60;7.90;;;;;;4904464;29;20512;-72
2023/08/30 16:19:04;;;;;;;0.80;0.60;;;21.60;2.00;;;;;;4897192;29;20560;-72
2023/08/30 16:21:31;;;;;;;1.40;1.00;;;21.40;1.00;;;;;;4895554;29;20978;-72
2023/08/30 16:24:01;;;;;;;0.80;0.47;;;21.30;1.80;;;;;;4902927;29;20498;-73
2023/08/30 16:26:29;;;;;;;2.70;2.50;;;;;;;;;;4896184;29;20463;-73
2023/08/30 16:28:57;;;;;;;1.37;1.20;;;21.20;2.10;;;;;;4910344;29;20904;-70
2023/08/30 16:31:30;;;;;;;0.97;0.70;;;21.00;2.20;;;;;;4892840;29;20508;-74
2023/08/30 16:33:58;;;;;;;2.50;0.70;;;21.10;4.70;;;;;;4900294;29;20532;-73
2023/08/30 16:36:26;;;;;;;0.60;0.20;;;21.10;4.20;;;;;;4900174;29;20873;-73
2023/08/30 16:38:53;;;;;;;0.60;0.30;;;18.40;2.50;;;;;;4915852;29;20460;-71
2023/08/30 16:41:23;;;;;;;0.70;0.50;;;21.10;14.00;;;;;;4908500;29;20484;-71
2023/08/30 16:43:50;;;;;;;2.10;1.07;;;21.20;6.50;;;;;;4905946;29;20569;-72
2023/08/30 16:46:18;;;;;;;4.30;0.80;;;21.10;7.90;;;;;;4909618;29;21070;-72
2023/08/30 16:48:46;;;;;;;1.17;0.70;;;21.20;7.60;;;;;;4905963;29;20448;-72
2023/08/30 16:51:15;;;;;;;5.30;1.73;;;21.10;7.30;;;;;;4899695;29;20821;-73
2023/08/30 16:53:42;;;;;;;1.43;0.63;;;21.00;7.30;;;;;;4896899;29;20485;-72
2023/08/30 16:56:11;;;;;;;1.17;1.07;;;21.00;15.90;;;;;;4894155;29;20448;-73
2023/08/30 16:58:40;;;;;;;4.27;3.80;;;20.80;9.30;;;;;;4895287;29;20958;-74
2023/08/30 17:01:09;;;;;;;0.70;0.27;;;20.80;11.00;;;;;;4897800;29;20484;-72
2023/08/30 17:03:37;;;;;;;0.70;0.40;;;20.80;13.60;;;;;;4897152;29;20460;-74
2023/08/30 17:06:06;;;;;;;2.60;1.50;;;20.60;15.00;;;;;;4892212;29;20592;-72
2023/08/30 17:08:34;;;;;;;0.60;0.20;;;20.60;23.10;;;;;;4900887;29;20469;-71
2023/08/30 17:11:04;;;;;;;1.37;0.70;;;20.50;17.70;;;;;;4904668;29;20463;-71